ウルムチ の空港の天気 - METARとTAF

ウルムチ地窩堡国際空港 ( ZWWW / URC ) - 中国 新疆ウイグル自治区ウルムチ市
飛行場実況気象(Metar)
観測時間07/16 14:00 CST (07/16 06:00 UTC)
風向・風速北 4m/s
視程10km以上
天気現象
なし
気温34℃
湿度20%
気圧1000hPa
METARZWWW 160600Z 36004MPS 320V040 CAVOK 34/08 Q1000 NOSIG
過去の天気等 Google飛行場航空写真 Wunderground天気予報

過去48時間のMETAR

飛行場予報(TAF)
発表時間: 7/16 11:01 CST (7/16 03:01 UTC)
予報対象時間: 16日14時 CST ~ 17日14時 CST
風向・風速北 4m/s
視程10km以上
なし
16日21時 CST ~ 16日22時 CST に徐々に
風向・風速南 4m/s
17日10時 CST ~ 17日11時 CST に徐々に
風向・風速北 4m/s
TAF ZWWW 160301Z 1606/1706 36004MPS CAVOK TX35/1609Z TN25/1623Z
BECMG 1613/1614 18004MPS
BECMG 1702/1703 36004MPS